sensor_id;sensor_type;location;lat;lon;timestamp;P1;durP1;ratioP1;P2;durP2;ratioP2
84054;SDS011;74141;51.504;7.122;2024-03-08T00:00:18;26.25;;;15.48;;
84054;SDS011;74141;51.504;7.122;2024-03-08T00:02:47;26.10;;;15.70;;
84054;SDS011;74141;51.504;7.122;2024-03-08T00:05:13;28.05;;;16.73;;
84054;SDS011;74141;51.504;7.122;2024-03-08T00:07:39;26.20;;;14.32;;
84054;SDS011;74141;51.504;7.122;2024-03-08T00:10:05;26.42;;;15.60;;
84054;SDS011;74141;51.504;7.122;2024-03-08T00:12:37;24.02;;;14.30;;
84054;SDS011;74141;51.504;7.122;2024-03-08T00:15:03;25.63;;;16.25;;
84054;SDS011;74141;51.504;7.122;2024-03-08T00:17:29;26.08;;;16.40;;
84054;SDS011;74141;51.504;7.122;2024-03-08T00:19:54;22.20;;;13.63;;
84054;SDS011;74141;51.504;7.122;2024-03-08T00:22:19;26.57;;;16.63;;
84054;SDS011;74141;51.504;7.122;2024-03-08T00:24:47;25.10;;;13.73;;
84054;SDS011;74141;51.504;7.122;2024-03-08T00:27:12;23.88;;;14.88;;
84054;SDS011;74141;51.504;7.122;2024-03-08T00:29:37;24.13;;;14.97;;
84054;SDS011;74141;51.504;7.122;2024-03-08T00:32:04;24.50;;;13.88;;
84054;SDS011;74141;51.504;7.122;2024-03-08T00:34:29;27.52;;;16.90;;
84054;SDS011;74141;51.504;7.122;2024-03-08T00:36:54;28.13;;;15.27;;
84054;SDS011;74141;51.504;7.122;2024-03-08T00:39:20;27.27;;;17.58;;
84054;SDS011;74141;51.504;7.122;2024-03-08T00:41:46;25.60;;;16.83;;
84054;SDS011;74141;51.504;7.122;2024-03-08T00:44:11;28.80;;;16.70;;
84054;SDS011;74141;51.504;7.122;2024-03-08T00:46:36;28.43;;;15.70;;
84054;SDS011;74141;51.504;7.122;2024-03-08T00:49:03;26.25;;;15.50;;
84054;SDS011;74141;51.504;7.122;2024-03-08T00:51:28;29.83;;;17.25;;
84054;SDS011;74141;51.504;7.122;2024-03-08T00:53:54;30.52;;;18.52;;
84054;SDS011;74141;51.504;7.122;2024-03-08T00:56:19;29.97;;;17.20;;
84054;SDS011;74141;51.504;7.122;2024-03-08T00:58:44;27.37;;;15.43;;
84054;SDS011;74141;51.504;7.122;2024-03-08T01:01:10;25.80;;;15.05;;
84054;SDS011;74141;51.504;7.122;2024-03-08T01:03:35;30.77;;;19.33;;
84054;SDS011;74141;51.504;7.122;2024-03-08T01:06:01;28.33;;;17.35;;
84054;SDS011;74141;51.504;7.122;2024-03-08T01:08:27;27.02;;;14.95;;
84054;SDS011;74141;51.504;7.122;2024-03-08T01:10:52;28.98;;;15.68;;
84054;SDS011;74141;51.504;7.122;2024-03-08T01:13:18;27.58;;;17.02;;
84054;SDS011;74141;51.504;7.122;2024-03-08T01:15:44;30.05;;;16.95;;
84054;SDS011;74141;51.504;7.122;2024-03-08T01:18:09;31.05;;;18.83;;
84054;SDS011;74141;51.504;7.122;2024-03-08T01:20:35;28.75;;;18.20;;
84054;SDS011;74141;51.504;7.122;2024-03-08T01:23:00;28.77;;;17.35;;
84054;SDS011;74141;51.504;7.122;2024-03-08T01:25:26;29.55;;;18.90;;
84054;SDS011;74141;51.504;7.122;2024-03-08T01:27:52;28.92;;;15.02;;
84054;SDS011;74141;51.504;7.122;2024-03-08T01:30:19;26.70;;;16.80;;
84054;SDS011;74141;51.504;7.122;2024-03-08T01:32:44;29.17;;;17.10;;
84054;SDS011;74141;51.504;7.122;2024-03-08T01:35:10;31.48;;;17.80;;
84054;SDS011;74141;51.504;7.122;2024-03-08T01:37:35;34.17;;;19.08;;
84054;SDS011;74141;51.504;7.122;2024-03-08T01:40:01;34.53;;;16.33;;
84054;SDS011;74141;51.504;7.122;2024-03-08T01:42:27;27.80;;;15.98;;
84054;SDS011;74141;51.504;7.122;2024-03-08T01:44:53;29.23;;;18.67;;
84054;SDS011;74141;51.504;7.122;2024-03-08T01:47:18;32.03;;;17.03;;
84054;SDS011;74141;51.504;7.122;2024-03-08T01:49:45;26.77;;;16.90;;
84054;SDS011;74141;51.504;7.122;2024-03-08T01:52:10;28.63;;;17.07;;
84054;SDS011;74141;51.504;7.122;2024-03-08T01:54:36;26.88;;;15.82;;
84054;SDS011;74141;51.504;7.122;2024-03-08T01:57:02;29.77;;;14.65;;
84054;SDS011;74141;51.504;7.122;2024-03-08T01:59:27;30.15;;;16.80;;
84054;SDS011;74141;51.504;7.122;2024-03-08T02:01:56;25.60;;;15.35;;
84054;SDS011;74141;51.504;7.122;2024-03-08T02:04:26;29.40;;;16.13;;
84054;SDS011;74141;51.504;7.122;2024-03-08T02:06:52;30.02;;;16.60;;
84054;SDS011;74141;51.504;7.122;2024-03-08T02:09:17;25.42;;;15.13;;
84054;SDS011;74141;51.504;7.122;2024-03-08T02:11:42;27.15;;;17.48;;
84054;SDS011;74141;51.504;7.122;2024-03-08T02:14:14;29.65;;;16.30;;
84054;SDS011;74141;51.504;7.122;2024-03-08T02:16:39;28.08;;;16.13;;
84054;SDS011;74141;51.504;7.122;2024-03-08T02:19:13;29.60;;;16.07;;
84054;SDS011;74141;51.504;7.122;2024-03-08T02:21:39;25.70;;;15.27;;
84054;SDS011;74141;51.504;7.122;2024-03-08T02:24:13;26.75;;;15.75;;
84054;SDS011;74141;51.504;7.122;2024-03-08T02:26:39;30.15;;;15.75;;
84054;SDS011;74141;51.504;7.122;2024-03-08T02:29:14;29.65;;;16.10;;
84054;SDS011;74141;51.504;7.122;2024-03-08T02:31:39;34.03;;;19.10;;
84054;SDS011;74141;51.504;7.122;2024-03-08T02:34:14;30.83;;;18.83;;
84054;SDS011;74141;51.504;7.122;2024-03-08T02:36:39;32.92;;;17.92;;
84054;SDS011;74141;51.504;7.122;2024-03-08T02:39:13;30.20;;;17.07;;
84054;SDS011;74141;51.504;7.122;2024-03-08T02:41:39;25.02;;;15.27;;
84054;SDS011;74141;51.504;7.122;2024-03-08T02:44:13;30.40;;;17.67;;
84054;SDS011;74141;51.504;7.122;2024-03-08T02:46:39;28.92;;;16.33;;
84054;SDS011;74141;51.504;7.122;2024-03-08T02:49:14;28.15;;;16.80;;
84054;SDS011;74141;51.504;7.122;2024-03-08T02:51:39;26.08;;;14.88;;
84054;SDS011;74141;51.504;7.122;2024-03-08T02:54:11;32.10;;;17.00;;
84054;SDS011;74141;51.504;7.122;2024-03-08T02:56:36;29.13;;;16.42;;
84054;SDS011;74141;51.504;7.122;2024-03-08T02:59:14;29.75;;;16.45;;
84054;SDS011;74141;51.504;7.122;2024-03-08T03:01:42;33.88;;;17.30;;
84054;SDS011;74141;51.504;7.122;2024-03-08T03:04:08;30.63;;;16.75;;
84054;SDS011;74141;51.504;7.122;2024-03-08T03:06:33;31.70;;;16.33;;
84054;SDS011;74141;51.504;7.122;2024-03-08T03:08:59;34.40;;;18.20;;
84054;SDS011;74141;51.504;7.122;2024-03-08T03:11:24;30.57;;;16.13;;
84054;SDS011;74141;51.504;7.122;2024-03-08T03:13:49;32.97;;;15.20;;
84054;SDS011;74141;51.504;7.122;2024-03-08T03:16:18;33.47;;;16.60;;
84054;SDS011;74141;51.504;7.122;2024-03-08T03:18:47;29.63;;;16.08;;
84054;SDS011;74141;51.504;7.122;2024-03-08T03:21:13;31.95;;;17.60;;
84054;SDS011;74141;51.504;7.122;2024-03-08T03:23:39;33.83;;;17.50;;
84054;SDS011;74141;51.504;7.122;2024-03-08T03:26:07;30.80;;;17.55;;
84054;SDS011;74141;51.504;7.122;2024-03-08T03:28:33;33.40;;;16.08;;
84054;SDS011;74141;51.504;7.122;2024-03-08T03:30:59;35.20;;;19.98;;
84054;SDS011;74141;51.504;7.122;2024-03-08T03:33:24;40.22;;;19.25;;
84054;SDS011;74141;51.504;7.122;2024-03-08T03:35:50;26.40;;;15.32;;
84054;SDS011;74141;51.504;7.122;2024-03-08T03:38:16;34.22;;;17.70;;
84054;SDS011;74141;51.504;7.122;2024-03-08T03:40:42;26.73;;;15.07;;
84054;SDS011;74141;51.504;7.122;2024-03-08T03:43:10;32.85;;;17.05;;
84054;SDS011;74141;51.504;7.122;2024-03-08T03:45:35;32.03;;;17.65;;
84054;SDS011;74141;51.504;7.122;2024-03-08T03:48:04;36.38;;;18.55;;
84054;SDS011;74141;51.504;7.122;2024-03-08T03:50:36;33.35;;;16.67;;
84054;SDS011;74141;51.504;7.122;2024-03-08T03:53:02;28.20;;;15.43;;
84054;SDS011;74141;51.504;7.122;2024-03-08T03:55:28;32.88;;;17.73;;
84054;SDS011;74141;51.504;7.122;2024-03-08T03:57:54;32.15;;;18.00;;
84054;SDS011;74141;51.504;7.122;2024-03-08T04:00:19;36.67;;;19.77;;
84054;SDS011;74141;51.504;7.122;2024-03-08T04:02:45;32.30;;;17.02;;
84054;SDS011;74141;51.504;7.122;2024-03-08T04:05:11;34.42;;;18.45;;
84054;SDS011;74141;51.504;7.122;2024-03-08T04:07:37;34.08;;;17.40;;
84054;SDS011;74141;51.504;7.122;2024-03-08T04:10:03;33.60;;;18.63;;
84054;SDS011;74141;51.504;7.122;2024-03-08T04:12:31;34.80;;;17.52;;
84054;SDS011;74141;51.504;7.122;2024-03-08T04:14:57;40.63;;;18.70;;
84054;SDS011;74141;51.504;7.122;2024-03-08T04:17:22;39.55;;;19.65;;
84054;SDS011;74141;51.504;7.122;2024-03-08T04:19:49;30.17;;;16.63;;
84054;SDS011;74141;51.504;7.122;2024-03-08T04:22:14;37.20;;;18.80;;
84054;SDS011;74141;51.504;7.122;2024-03-08T04:24:40;39.65;;;20.15;;
84054;SDS011;74141;51.504;7.122;2024-03-08T04:27:06;33.30;;;16.30;;
84054;SDS011;74141;51.504;7.122;2024-03-08T04:29:31;33.33;;;17.55;;
84054;SDS011;74141;51.504;7.122;2024-03-08T04:31:57;30.88;;;17.60;;
84054;SDS011;74141;51.504;7.122;2024-03-08T04:34:23;34.60;;;18.90;;
84054;SDS011;74141;51.504;7.122;2024-03-08T04:36:49;39.28;;;21.35;;
84054;SDS011;74141;51.504;7.122;2024-03-08T04:39:14;33.95;;;19.02;;
84054;SDS011;74141;51.504;7.122;2024-03-08T04:41:40;38.25;;;18.60;;
84054;SDS011;74141;51.504;7.122;2024-03-08T04:44:08;32.58;;;18.17;;
84054;SDS011;74141;51.504;7.122;2024-03-08T04:46:34;37.95;;;18.35;;
84054;SDS011;74141;51.504;7.122;2024-03-08T04:49:00;36.13;;;21.35;;
84054;SDS011;74141;51.504;7.122;2024-03-08T04:51:25;40.05;;;20.63;;
84054;SDS011;74141;51.504;7.122;2024-03-08T04:53:51;37.03;;;17.60;;
84054;SDS011;74141;51.504;7.122;2024-03-08T04:56:16;37.38;;;20.15;;
84054;SDS011;74141;51.504;7.122;2024-03-08T04:58:44;35.88;;;17.85;;
84054;SDS011;74141;51.504;7.122;2024-03-08T05:01:11;35.38;;;19.70;;
84054;SDS011;74141;51.504;7.122;2024-03-08T05:03:37;38.45;;;18.98;;
84054;SDS011;74141;51.504;7.122;2024-03-08T05:06:03;34.42;;;19.23;;
84054;SDS011;74141;51.504;7.122;2024-03-08T05:08:29;38.67;;;19.98;;
84054;SDS011;74141;51.504;7.122;2024-03-08T05:10:54;38.97;;;19.77;;
84054;SDS011;74141;51.504;7.122;2024-03-08T05:13:19;36.67;;;20.15;;
84054;SDS011;74141;51.504;7.122;2024-03-08T05:15:47;33.80;;;18.05;;
84054;SDS011;74141;51.504;7.122;2024-03-08T05:18:14;31.48;;;17.73;;
84054;SDS011;74141;51.504;7.122;2024-03-08T05:20:40;39.55;;;20.95;;
84054;SDS011;74141;51.504;7.122;2024-03-08T05:23:06;36.50;;;18.88;;
84054;SDS011;74141;51.504;7.122;2024-03-08T05:25:31;36.90;;;20.00;;
84054;SDS011;74141;51.504;7.122;2024-03-08T05:27:57;36.22;;;18.23;;
84054;SDS011;74141;51.504;7.122;2024-03-08T05:30:23;40.83;;;20.02;;
84054;SDS011;74141;51.504;7.122;2024-03-08T05:32:48;39.67;;;21.30;;
84054;SDS011;74141;51.504;7.122;2024-03-08T05:35:13;38.38;;;19.73;;
84054;SDS011;74141;51.504;7.122;2024-03-08T05:37:41;37.38;;;20.30;;
84054;SDS011;74141;51.504;7.122;2024-03-08T05:40:07;40.22;;;20.98;;
84054;SDS011;74141;51.504;7.122;2024-03-08T05:42:37;38.45;;;18.50;;
84054;SDS011;74141;51.504;7.122;2024-03-08T05:45:03;39.80;;;20.35;;
84054;SDS011;74141;51.504;7.122;2024-03-08T05:47:29;40.40;;;19.63;;
84054;SDS011;74141;51.504;7.122;2024-03-08T05:49:54;35.53;;;19.17;;
84054;SDS011;74141;51.504;7.122;2024-03-08T05:52:20;40.75;;;21.42;;
84054;SDS011;74141;51.504;7.122;2024-03-08T05:54:45;36.85;;;19.35;;
84054;SDS011;74141;51.504;7.122;2024-03-08T05:57:12;42.95;;;22.48;;
84054;SDS011;74141;51.504;7.122;2024-03-08T05:59:37;37.53;;;20.35;;
84054;SDS011;74141;51.504;7.122;2024-03-08T06:02:03;36.53;;;20.55;;
84054;SDS011;74141;51.504;7.122;2024-03-08T06:04:28;35.33;;;18.15;;
84054;SDS011;74141;51.504;7.122;2024-03-08T06:06:54;36.42;;;19.48;;
84054;SDS011;74141;51.504;7.122;2024-03-08T06:09:22;39.42;;;21.00;;
84054;SDS011;74141;51.504;7.122;2024-03-08T06:11:48;43.85;;;22.20;;
84054;SDS011;74141;51.504;7.122;2024-03-08T06:14:14;38.38;;;19.73;;
84054;SDS011;74141;51.504;7.122;2024-03-08T06:16:43;41.85;;;22.17;;
84054;SDS011;74141;51.504;7.122;2024-03-08T06:19:09;37.78;;;19.35;;
84054;SDS011;74141;51.504;7.122;2024-03-08T06:21:35;35.08;;;17.65;;
84054;SDS011;74141;51.504;7.122;2024-03-08T06:24:00;39.43;;;19.83;;
84054;SDS011;74141;51.504;7.122;2024-03-08T06:26:25;36.35;;;19.95;;
84054;SDS011;74141;51.504;7.122;2024-03-08T06:28:53;38.95;;;19.45;;
84054;SDS011;74141;51.504;7.122;2024-03-08T06:31:18;40.88;;;21.10;;
84054;SDS011;74141;51.504;7.122;2024-03-08T06:33:44;35.63;;;18.00;;
84054;SDS011;74141;51.504;7.122;2024-03-08T06:36:10;39.55;;;21.40;;
84054;SDS011;74141;51.504;7.122;2024-03-08T06:38:37;41.90;;;21.27;;
84054;SDS011;74141;51.504;7.122;2024-03-08T06:41:07;40.05;;;21.92;;
84054;SDS011;74141;51.504;7.122;2024-03-08T06:43:32;40.22;;;20.67;;
84054;SDS011;74141;51.504;7.122;2024-03-08T06:45:59;36.30;;;20.00;;
84054;SDS011;74141;51.504;7.122;2024-03-08T06:48:24;37.15;;;18.85;;
84054;SDS011;74141;51.504;7.122;2024-03-08T06:50:50;42.67;;;20.13;;
84054;SDS011;74141;51.504;7.122;2024-03-08T06:53:15;34.83;;;17.83;;
84054;SDS011;74141;51.504;7.122;2024-03-08T06:55:42;34.85;;;19.05;;
84054;SDS011;74141;51.504;7.122;2024-03-08T06:58:09;38.58;;;19.75;;
84054;SDS011;74141;51.504;7.122;2024-03-08T07:00:35;35.72;;;19.17;;
84054;SDS011;74141;51.504;7.122;2024-03-08T07:03:01;35.60;;;20.65;;
84054;SDS011;74141;51.504;7.122;2024-03-08T07:05:27;34.35;;;19.10;;
84054;SDS011;74141;51.504;7.122;2024-03-08T07:07:53;39.60;;;21.08;;
84054;SDS011;74141;51.504;7.122;2024-03-08T07:10:19;35.42;;;19.95;;
84054;SDS011;74141;51.504;7.122;2024-03-08T07:12:51;32.50;;;18.40;;
84054;SDS011;74141;51.504;7.122;2024-03-08T07:15:18;37.47;;;20.63;;
84054;SDS011;74141;51.504;7.122;2024-03-08T07:17:44;32.92;;;18.77;;
84054;SDS011;74141;51.504;7.122;2024-03-08T07:20:13;31.10;;;17.92;;
84054;SDS011;74141;51.504;7.122;2024-03-08T07:22:40;34.38;;;19.65;;
84054;SDS011;74141;51.504;7.122;2024-03-08T07:25:06;34.42;;;20.10;;
84054;SDS011;74141;51.504;7.122;2024-03-08T07:27:49;29.67;;;18.15;;
84054;SDS011;74141;51.504;7.122;2024-03-08T07:30:19;34.25;;;18.25;;
84054;SDS011;74141;51.504;7.122;2024-03-08T07:33:06;33.08;;;17.90;;
84054;SDS011;74141;51.504;7.122;2024-03-08T07:35:32;34.47;;;19.67;;
84054;SDS011;74141;51.504;7.122;2024-03-08T07:38:01;32.50;;;18.38;;
84054;SDS011;74141;51.504;7.122;2024-03-08T07:40:27;30.40;;;16.40;;
84054;SDS011;74141;51.504;7.122;2024-03-08T07:42:52;33.05;;;18.90;;
84054;SDS011;74141;51.504;7.122;2024-03-08T07:45:18;28.27;;;17.02;;
84054;SDS011;74141;51.504;7.122;2024-03-08T07:47:43;31.10;;;17.97;;
84054;SDS011;74141;51.504;7.122;2024-03-08T07:50:09;28.45;;;16.50;;
84054;SDS011;74141;51.504;7.122;2024-03-08T07:52:34;31.50;;;17.73;;
84054;SDS011;74141;51.504;7.122;2024-03-08T07:55:01;28.02;;;17.70;;
84054;SDS011;74141;51.504;7.122;2024-03-08T07:57:26;31.58;;;16.58;;
84054;SDS011;74141;51.504;7.122;2024-03-08T07:59:52;29.23;;;17.65;;
84054;SDS011;74141;51.504;7.122;2024-03-08T08:02:17;28.53;;;17.73;;
84054;SDS011;74141;51.504;7.122;2024-03-08T08:04:43;28.10;;;16.67;;
84054;SDS011;74141;51.504;7.122;2024-03-08T08:07:09;26.38;;;16.80;;
84054;SDS011;74141;51.504;7.122;2024-03-08T08:09:35;32.00;;;16.13;;
84054;SDS011;74141;51.504;7.122;2024-03-08T08:12:00;26.17;;;16.87;;
84054;SDS011;74141;51.504;7.122;2024-03-08T08:14:28;36.20;;;18.13;;
84054;SDS011;74141;51.504;7.122;2024-03-08T08:16:54;30.42;;;18.48;;
84054;SDS011;74141;51.504;7.122;2024-03-08T08:19:22;31.80;;;18.58;;
84054;SDS011;74141;51.504;7.122;2024-03-08T08:21:47;28.30;;;17.50;;
84054;SDS011;74141;51.504;7.122;2024-03-08T08:24:12;34.28;;;18.80;;
84054;SDS011;74141;51.504;7.122;2024-03-08T08:26:38;26.35;;;15.30;;
84054;SDS011;74141;51.504;7.122;2024-03-08T08:29:03;29.83;;;16.13;;
84054;SDS011;74141;51.504;7.122;2024-03-08T08:31:29;26.75;;;17.30;;
84054;SDS011;74141;51.504;7.122;2024-03-08T08:33:55;25.88;;;14.30;;
84054;SDS011;74141;51.504;7.122;2024-03-08T08:36:23;31.13;;;17.48;;
84054;SDS011;74141;51.504;7.122;2024-03-08T08:38:49;26.25;;;16.52;;
84054;SDS011;74141;51.504;7.122;2024-03-08T08:41:15;31.15;;;17.67;;
84054;SDS011;74141;51.504;7.122;2024-03-08T08:43:42;25.77;;;16.58;;
84054;SDS011;74141;51.504;7.122;2024-03-08T08:46:09;26.10;;;14.98;;
84054;SDS011;74141;51.504;7.122;2024-03-08T08:48:38;24.77;;;15.63;;
84054;SDS011;74141;51.504;7.122;2024-03-08T08:51:03;24.05;;;15.38;;
84054;SDS011;74141;51.504;7.122;2024-03-08T08:53:31;34.00;;;18.50;;
84054;SDS011;74141;51.504;7.122;2024-03-08T08:55:56;33.63;;;15.97;;
84054;SDS011;74141;51.504;7.122;2024-03-08T08:58:21;29.07;;;15.67;;
84054;SDS011;74141;51.504;7.122;2024-03-08T09:00:47;25.90;;;16.90;;
84054;SDS011;74141;51.504;7.122;2024-03-08T09:03:12;30.50;;;17.77;;
84054;SDS011;74141;51.504;7.122;2024-03-08T09:05:38;28.50;;;15.53;;
84054;SDS011;74141;51.504;7.122;2024-03-08T09:08:03;26.37;;;16.97;;
84054;SDS011;74141;51.504;7.122;2024-03-08T09:10:28;28.17;;;17.52;;
84054;SDS011;74141;51.504;7.122;2024-03-08T09:12:54;27.80;;;17.77;;
84054;SDS011;74141;51.504;7.122;2024-03-08T09:15:19;25.88;;;15.20;;
84054;SDS011;74141;51.504;7.122;2024-03-08T09:17:45;28.98;;;22.10;;
84054;SDS011;74141;51.504;7.122;2024-03-08T09:20:11;26.30;;;15.48;;
84054;SDS011;74141;51.504;7.122;2024-03-08T09:22:40;26.40;;;16.25;;
84054;SDS011;74141;51.504;7.122;2024-03-08T09:25:11;27.10;;;17.48;;
84054;SDS011;74141;51.504;7.122;2024-03-08T09:27:36;31.08;;;19.73;;
84054;SDS011;74141;51.504;7.122;2024-03-08T09:30:02;24.75;;;15.27;;
84054;SDS011;74141;51.504;7.122;2024-03-08T09:32:31;28.40;;;16.35;;
84054;SDS011;74141;51.504;7.122;2024-03-08T09:34:57;31.35;;;18.90;;
84054;SDS011;74141;51.504;7.122;2024-03-08T09:37:22;42.78;;;31.33;;
84054;SDS011;74141;51.504;7.122;2024-03-08T09:39:47;46.55;;;26.35;;
84054;SDS011;74141;51.504;7.122;2024-03-08T09:42:13;34.13;;;21.63;;
84054;SDS011;74141;51.504;7.122;2024-03-08T09:44:46;33.75;;;19.15;;
84054;SDS011;74141;51.504;7.122;2024-03-08T09:47:15;29.42;;;16.40;;
84054;SDS011;74141;51.504;7.122;2024-03-08T09:49:41;29.13;;;16.58;;
84054;SDS011;74141;51.504;7.122;2024-03-08T09:52:07;24.90;;;15.25;;
84054;SDS011;74141;51.504;7.122;2024-03-08T09:54:32;27.23;;;17.05;;
84054;SDS011;74141;51.504;7.122;2024-03-08T09:56:58;21.05;;;12.60;;
84054;SDS011;74141;51.504;7.122;2024-03-08T09:59:24;28.67;;;18.05;;
84054;SDS011;74141;51.504;7.122;2024-03-08T10:01:52;25.25;;;16.48;;
84054;SDS011;74141;51.504;7.122;2024-03-08T10:04:17;22.30;;;13.40;;
84054;SDS011;74141;51.504;7.122;2024-03-08T10:06:43;24.88;;;15.65;;
84054;SDS011;74141;51.504;7.122;2024-03-08T10:09:08;27.48;;;17.95;;
84054;SDS011;74141;51.504;7.122;2024-03-08T10:11:35;27.23;;;15.60;;
84054;SDS011;74141;51.504;7.122;2024-03-08T10:14:00;27.88;;;15.48;;
84054;SDS011;74141;51.504;7.122;2024-03-08T10:16:27;26.02;;;14.85;;
84054;SDS011;74141;51.504;7.122;2024-03-08T10:18:52;26.92;;;16.77;;
84054;SDS011;74141;51.504;7.122;2024-03-08T10:21:18;26.73;;;16.85;;
84054;SDS011;74141;51.504;7.122;2024-03-08T10:23:44;25.80;;;16.77;;
84054;SDS011;74141;51.504;7.122;2024-03-08T10:26:10;25.85;;;15.75;;
84054;SDS011;74141;51.504;7.122;2024-03-08T10:28:36;24.85;;;16.23;;
84054;SDS011;74141;51.504;7.122;2024-03-08T10:31:01;25.45;;;16.13;;
84054;SDS011;74141;51.504;7.122;2024-03-08T10:33:27;23.63;;;14.70;;
84054;SDS011;74141;51.504;7.122;2024-03-08T10:35:53;25.58;;;17.60;;
84054;SDS011;74141;51.504;7.122;2024-03-08T10:38:18;33.65;;;18.58;;
84054;SDS011;74141;51.504;7.122;2024-03-08T10:40:46;25.45;;;16.15;;
84054;SDS011;74141;51.504;7.122;2024-03-08T10:43:18;27.13;;;17.27;;
84054;SDS011;74141;51.504;7.122;2024-03-08T10:45:50;27.50;;;16.77;;
84054;SDS011;74141;51.504;7.122;2024-03-08T10:48:28;27.58;;;16.88;;
84054;SDS011;74141;51.504;7.122;2024-03-08T10:50:57;26.33;;;16.48;;
84054;SDS011;74141;51.504;7.122;2024-03-08T10:53:26;28.73;;;18.60;;
84054;SDS011;74141;51.504;7.122;2024-03-08T10:55:53;28.70;;;15.45;;
84054;SDS011;74141;51.504;7.122;2024-03-08T10:58:20;26.15;;;15.43;;
84054;SDS011;74141;51.504;7.122;2024-03-08T11:00:47;25.75;;;15.27;;
84054;SDS011;74141;51.504;7.122;2024-03-08T11:06:05;29.35;;;18.10;;
84054;SDS011;74141;51.504;7.122;2024-03-08T11:08:39;27.30;;;18.30;;
84054;SDS011;74141;51.504;7.122;2024-03-08T11:11:04;28.23;;;15.13;;
84054;SDS011;74141;51.504;7.122;2024-03-08T11:13:33;26.35;;;16.67;;
84054;SDS011;74141;51.504;7.122;2024-03-08T11:16:00;27.25;;;17.05;;
84054;SDS011;74141;51.504;7.122;2024-03-08T11:18:26;31.30;;;20.30;;
84054;SDS011;74141;51.504;7.122;2024-03-08T11:20:54;26.27;;;18.48;;
84054;SDS011;74141;51.504;7.122;2024-03-08T11:23:22;25.85;;;18.50;;
84054;SDS011;74141;51.504;7.122;2024-03-08T11:25:48;27.58;;;19.55;;
84054;SDS011;74141;51.504;7.122;2024-03-08T11:28:20;24.55;;;15.57;;
84054;SDS011;74141;51.504;7.122;2024-03-08T11:33:23;26.33;;;16.42;;
84054;SDS011;74141;51.504;7.122;2024-03-08T11:35:50;27.33;;;19.02;;
84054;SDS011;74141;51.504;7.122;2024-03-08T11:38:15;22.88;;;16.08;;
84054;SDS011;74141;51.504;7.122;2024-03-08T11:40:41;27.45;;;18.80;;
84054;SDS011;74141;51.504;7.122;2024-03-08T11:43:07;27.65;;;17.60;;
84054;SDS011;74141;51.504;7.122;2024-03-08T11:45:36;25.33;;;16.05;;
84054;SDS011;74141;51.504;7.122;2024-03-08T11:48:04;27.92;;;15.75;;
84054;SDS011;74141;51.504;7.122;2024-03-08T11:50:30;24.05;;;14.77;;
84054;SDS011;74141;51.504;7.122;2024-03-08T11:53:01;25.13;;;15.65;;
84054;SDS011;74141;51.504;7.122;2024-03-08T11:55:29;27.15;;;16.20;;
84054;SDS011;74141;51.504;7.122;2024-03-08T11:58:01;24.30;;;15.30;;
84054;SDS011;74141;51.504;7.122;2024-03-08T12:03:04;22.60;;;14.90;;
84054;SDS011;74141;51.504;7.122;2024-03-08T12:05:30;23.70;;;15.75;;
84054;SDS011;74141;51.504;7.122;2024-03-08T12:07:58;22.63;;;15.10;;
84054;SDS011;74141;51.504;7.122;2024-03-08T12:10:23;23.95;;;15.55;;
84054;SDS011;74141;51.504;7.122;2024-03-08T12:12:51;23.80;;;15.00;;
84054;SDS011;74141;51.504;7.122;2024-03-08T12:15:22;24.65;;;15.98;;
84054;SDS011;74141;51.504;7.122;2024-03-08T12:17:49;19.52;;;13.52;;
84054;SDS011;74141;51.504;7.122;2024-03-08T12:20:16;22.35;;;14.05;;
84054;SDS011;74141;51.504;7.122;2024-03-08T12:22:43;23.77;;;17.42;;
84054;SDS011;74141;51.504;7.122;2024-03-08T12:25:12;21.58;;;15.18;;
84054;SDS011;74141;51.504;7.122;2024-03-08T12:27:39;19.88;;;11.30;;
84054;SDS011;74141;51.504;7.122;2024-03-08T12:30:17;20.65;;;13.52;;
84054;SDS011;74141;51.504;7.122;2024-03-08T12:32:47;23.48;;;12.45;;
84054;SDS011;74141;51.504;7.122;2024-03-08T12:35:13;19.23;;;12.38;;
84054;SDS011;74141;51.504;7.122;2024-03-08T12:37:39;21.48;;;12.45;;
84054;SDS011;74141;51.504;7.122;2024-03-08T12:40:06;20.65;;;13.00;;
84054;SDS011;74141;51.504;7.122;2024-03-08T12:42:33;21.20;;;13.68;;
84054;SDS011;74141;51.504;7.122;2024-03-08T12:44:59;20.38;;;14.50;;
84054;SDS011;74141;51.504;7.122;2024-03-08T12:47:24;19.20;;;13.70;;
84054;SDS011;74141;51.504;7.122;2024-03-08T12:49:53;22.38;;;12.30;;
84054;SDS011;74141;51.504;7.122;2024-03-08T12:52:19;18.80;;;11.48;;
84054;SDS011;74141;51.504;7.122;2024-03-08T12:54:44;17.58;;;11.48;;
84054;SDS011;74141;51.504;7.122;2024-03-08T12:57:09;17.20;;;10.03;;
84054;SDS011;74141;51.504;7.122;2024-03-08T12:59:35;13.10;;;9.15;;
84054;SDS011;74141;51.504;7.122;2024-03-08T13:02:00;12.25;;;8.43;;
84054;SDS011;74141;51.504;7.122;2024-03-08T13:04:25;14.77;;;9.70;;
84054;SDS011;74141;51.504;7.122;2024-03-08T13:06:50;14.77;;;10.50;;
84054;SDS011;74141;51.504;7.122;2024-03-08T13:09:16;14.15;;;8.93;;
84054;SDS011;74141;51.504;7.122;2024-03-08T13:11:44;12.73;;;8.32;;
84054;SDS011;74141;51.504;7.122;2024-03-08T13:14:09;13.30;;;8.10;;
84054;SDS011;74141;51.504;7.122;2024-03-08T13:16:35;14.70;;;8.88;;
84054;SDS011;74141;51.504;7.122;2024-03-08T13:19:01;15.95;;;9.82;;
84054;SDS011;74141;51.504;7.122;2024-03-08T13:21:26;13.45;;;8.52;;
84054;SDS011;74141;51.504;7.122;2024-03-08T13:23:51;12.57;;;7.95;;
84054;SDS011;74141;51.504;7.122;2024-03-08T13:26:18;10.35;;;7.97;;
84054;SDS011;74141;51.504;7.122;2024-03-08T13:31:18;12.52;;;8.75;;
84054;SDS011;74141;51.504;7.122;2024-03-08T13:33:44;12.20;;;8.55;;
84054;SDS011;74141;51.504;7.122;2024-03-08T13:36:11;12.73;;;8.32;;
84054;SDS011;74141;51.504;7.122;2024-03-08T13:38:41;13.82;;;7.72;;
84054;SDS011;74141;51.504;7.122;2024-03-08T13:41:08;13.10;;;9.20;;
84054;SDS011;74141;51.504;7.122;2024-03-08T13:43:33;13.38;;;9.93;;
84054;SDS011;74141;51.504;7.122;2024-03-08T13:46:01;13.30;;;9.43;;
84054;SDS011;74141;51.504;7.122;2024-03-08T13:48:26;13.38;;;9.48;;
84054;SDS011;74141;51.504;7.122;2024-03-08T13:50:52;13.25;;;8.55;;
84054;SDS011;74141;51.504;7.122;2024-03-08T13:53:17;13.20;;;8.50;;
84054;SDS011;74141;51.504;7.122;2024-03-08T13:55:43;14.32;;;8.48;;
84054;SDS011;74141;51.504;7.122;2024-03-08T13:58:08;15.75;;;8.55;;
84054;SDS011;74141;51.504;7.122;2024-03-08T14:00:34;13.98;;;9.68;;
84054;SDS011;74141;51.504;7.122;2024-03-08T14:03:01;11.45;;;7.90;;
84054;SDS011;74141;51.504;7.122;2024-03-08T14:05:30;12.30;;;8.73;;
84054;SDS011;74141;51.504;7.122;2024-03-08T14:07:59;15.80;;;10.77;;
84054;SDS011;74141;51.504;7.122;2024-03-08T14:10:25;20.45;;;11.23;;
84054;SDS011;74141;51.504;7.122;2024-03-08T14:12:52;19.80;;;11.05;;
84054;SDS011;74141;51.504;7.122;2024-03-08T14:15:17;16.65;;;10.60;;
84054;SDS011;74141;51.504;7.122;2024-03-08T14:17:42;18.92;;;10.88;;
84054;SDS011;74141;51.504;7.122;2024-03-08T14:20:10;15.57;;;10.27;;
84054;SDS011;74141;51.504;7.122;2024-03-08T14:22:37;17.08;;;10.98;;
84054;SDS011;74141;51.504;7.122;2024-03-08T14:25:03;17.47;;;12.53;;
84054;SDS011;74141;51.504;7.122;2024-03-08T14:27:30;18.83;;;11.27;;
84054;SDS011;74141;51.504;7.122;2024-03-08T14:29:55;18.35;;;12.27;;